sensor_id;sensor_type;location;lat;lon;timestamp;temperature;humidity
16273;DHT22;8244;50.044;9.006;2023-11-21T00:02:54;9.30;99.90
16273;DHT22;8244;50.044;9.006;2023-11-21T00:07:55;9.30;99.90
16273;DHT22;8244;50.044;9.006;2023-11-21T00:12:58;9.30;99.90
16273;DHT22;8244;50.044;9.006;2023-11-21T00:18:00;9.30;99.90
16273;DHT22;8244;50.044;9.006;2023-11-21T00:23:01;9.30;99.90
16273;DHT22;8244;50.044;9.006;2023-11-21T00:28:05;9.30;99.90
16273;DHT22;8244;50.044;9.006;2023-11-21T00:33:07;9.30;99.90
16273;DHT22;8244;50.044;9.006;2023-11-21T00:38:08;9.30;99.90
16273;DHT22;8244;50.044;9.006;2023-11-21T00:43:12;9.30;99.90
16273;DHT22;8244;50.044;9.006;2023-11-21T00:48:13;9.30;99.90
16273;DHT22;8244;50.044;9.006;2023-11-21T00:53:15;9.30;99.90
16273;DHT22;8244;50.044;9.006;2023-11-21T00:58:19;9.20;99.90
16273;DHT22;8244;50.044;9.006;2023-11-21T01:03:20;9.20;99.90
16273;DHT22;8244;50.044;9.006;2023-11-21T01:08:22;9.20;99.90
16273;DHT22;8244;50.044;9.006;2023-11-21T01:13:25;9.20;99.90
16273;DHT22;8244;50.044;9.006;2023-11-21T01:18:29;9.30;99.90
16273;DHT22;8244;50.044;9.006;2023-11-21T01:23:30;9.30;99.90
16273;DHT22;8244;50.044;9.006;2023-11-21T01:28:34;9.20;99.90
16273;DHT22;8244;50.044;9.006;2023-11-21T01:33:35;9.30;99.90
16273;DHT22;8244;50.044;9.006;2023-11-21T01:38:37;9.30;99.90
16273;DHT22;8244;50.044;9.006;2023-11-21T01:43:40;9.30;99.90
16273;DHT22;8244;50.044;9.006;2023-11-21T01:48:42;9.30;99.90
16273;DHT22;8244;50.044;9.006;2023-11-21T01:53:45;9.30;99.90
16273;DHT22;8244;50.044;9.006;2023-11-21T01:58:49;9.30;99.90
16273;DHT22;8244;50.044;9.006;2023-11-21T02:03:51;9.20;99.90
16273;DHT22;8244;50.044;9.006;2023-11-21T02:08:53;9.20;99.90
16273;DHT22;8244;50.044;9.006;2023-11-21T02:13:57;9.20;99.90
16273;DHT22;8244;50.044;9.006;2023-11-21T02:19:01;9.20;99.90
16273;DHT22;8244;50.044;9.006;2023-11-21T02:24:06;9.20;99.90
16273;DHT22;8244;50.044;9.006;2023-11-21T02:29:08;9.20;99.90
16273;DHT22;8244;50.044;9.006;2023-11-21T02:34:12;9.30;99.90
16273;DHT22;8244;50.044;9.006;2023-11-21T02:39:15;9.30;99.90
16273;DHT22;8244;50.044;9.006;2023-11-21T02:44:17;9.30;99.90
16273;DHT22;8244;50.044;9.006;2023-11-21T02:49:18;9.30;99.90
16273;DHT22;8244;50.044;9.006;2023-11-21T02:54:21;9.30;99.90
16273;DHT22;8244;50.044;9.006;2023-11-21T02:59:23;9.40;99.90
16273;DHT22;8244;50.044;9.006;2023-11-21T03:04:25;9.40;99.90
16273;DHT22;8244;50.044;9.006;2023-11-21T03:09:28;9.30;99.90
16273;DHT22;8244;50.044;9.006;2023-11-21T03:14:29;9.20;99.90
16273;DHT22;8244;50.044;9.006;2023-11-21T03:19:31;9.20;99.90
16273;DHT22;8244;50.044;9.006;2023-11-21T03:24:34;9.10;99.90
16273;DHT22;8244;50.044;9.006;2023-11-21T03:29:35;9.10;99.90
16273;DHT22;8244;50.044;9.006;2023-11-21T03:34:53;9.10;99.90
16273;DHT22;8244;50.044;9.006;2023-11-21T03:39:56;9.10;99.90
16273;DHT22;8244;50.044;9.006;2023-11-21T03:44:58;9.10;99.90
16273;DHT22;8244;50.044;9.006;2023-11-21T03:49:59;9.10;99.90
16273;DHT22;8244;50.044;9.006;2023-11-21T03:55:03;9.10;99.90
16273;DHT22;8244;50.044;9.006;2023-11-21T04:00:06;9.20;99.90
16273;DHT22;8244;50.044;9.006;2023-11-21T04:05:10;9.20;99.90
16273;DHT22;8244;50.044;9.006;2023-11-21T04:10:13;9.20;99.90
16273;DHT22;8244;50.044;9.006;2023-11-21T04:15:16;9.20;99.90
16273;DHT22;8244;50.044;9.006;2023-11-21T04:20:17;9.20;99.90
16273;DHT22;8244;50.044;9.006;2023-11-21T04:25:21;9.20;99.90
16273;DHT22;8244;50.044;9.006;2023-11-21T04:30:23;9.30;99.90
16273;DHT22;8244;50.044;9.006;2023-11-21T04:35:25;9.30;99.90
16273;DHT22;8244;50.044;9.006;2023-11-21T04:40:28;9.30;99.90
16273;DHT22;8244;50.044;9.006;2023-11-21T04:45:29;9.20;99.90
16273;DHT22;8244;50.044;9.006;2023-11-21T04:50:31;9.20;99.90
16273;DHT22;8244;50.044;9.006;2023-11-21T04:55:34;9.20;99.90
16273;DHT22;8244;50.044;9.006;2023-11-21T05:00:36;9.20;99.90
16273;DHT22;8244;50.044;9.006;2023-11-21T05:05:37;9.20;99.90
16273;DHT22;8244;50.044;9.006;2023-11-21T05:10:40;9.20;99.90
16273;DHT22;8244;50.044;9.006;2023-11-21T05:15:42;9.20;99.90
16273;DHT22;8244;50.044;9.006;2023-11-21T05:20:44;9.20;99.90
16273;DHT22;8244;50.044;9.006;2023-11-21T05:25:47;9.20;99.90
16273;DHT22;8244;50.044;9.006;2023-11-21T05:30:49;9.20;99.90
16273;DHT22;8244;50.044;9.006;2023-11-21T05:35:51;9.20;99.90
16273;DHT22;8244;50.044;9.006;2023-11-21T05:40:54;9.20;99.90
16273;DHT22;8244;50.044;9.006;2023-11-21T05:45:55;9.20;99.90
16273;DHT22;8244;50.044;9.006;2023-11-21T05:50:57;9.10;99.90
16273;DHT22;8244;50.044;9.006;2023-11-21T05:56:00;9.20;99.90
16273;DHT22;8244;50.044;9.006;2023-11-21T06:01:05;9.20;99.90
16273;DHT22;8244;50.044;9.006;2023-11-21T06:06:08;9.10;99.90
16273;DHT22;8244;50.044;9.006;2023-11-21T06:11:11;9.10;99.90
16273;DHT22;8244;50.044;9.006;2023-11-21T06:16:13;9.10;99.90
16273;DHT22;8244;50.044;9.006;2023-11-21T06:21:16;9.20;99.90
16273;DHT22;8244;50.044;9.006;2023-11-21T06:26:20;9.20;99.90
16273;DHT22;8244;50.044;9.006;2023-11-21T06:31:22;9.20;99.90
16273;DHT22;8244;50.044;9.006;2023-11-21T06:36:23;9.20;99.90
16273;DHT22;8244;50.044;9.006;2023-11-21T06:41:26;9.20;99.90
16273;DHT22;8244;50.044;9.006;2023-11-21T06:46:28;9.20;99.90
16273;DHT22;8244;50.044;9.006;2023-11-21T06:51:30;9.20;99.90
16273;DHT22;8244;50.044;9.006;2023-11-21T06:56:33;9.20;99.90
16273;DHT22;8244;50.044;9.006;2023-11-21T07:01:34;9.20;99.90
16273;DHT22;8244;50.044;9.006;2023-11-21T07:06:39;9.20;99.90
16273;DHT22;8244;50.044;9.006;2023-11-21T07:11:42;9.20;99.90
16273;DHT22;8244;50.044;9.006;2023-11-21T07:16:44;9.20;99.90
16273;DHT22;8244;50.044;9.006;2023-11-21T07:21:46;9.20;99.90
16273;DHT22;8244;50.044;9.006;2023-11-21T07:26:52;9.20;99.90
16273;DHT22;8244;50.044;9.006;2023-11-21T07:31:57;9.10;99.90
16273;DHT22;8244;50.044;9.006;2023-11-21T07:36:58;9.10;99.90
16273;DHT22;8244;50.044;9.006;2023-11-21T07:42:02;9.10;99.90
16273;DHT22;8244;50.044;9.006;2023-11-21T07:47:05;9.10;99.90
16273;DHT22;8244;50.044;9.006;2023-11-21T07:52:06;9.20;99.90
16273;DHT22;8244;50.044;9.006;2023-11-21T07:57:09;9.20;99.90
16273;DHT22;8244;50.044;9.006;2023-11-21T08:02:13;9.30;99.90
16273;DHT22;8244;50.044;9.006;2023-11-21T08:07:17;9.30;99.90
16273;DHT22;8244;50.044;9.006;2023-11-21T08:12:20;9.40;99.90
16273;DHT22;8244;50.044;9.006;2023-11-21T08:17:22;9.50;99.90
16273;DHT22;8244;50.044;9.006;2023-11-21T08:22:24;9.60;99.90
16273;DHT22;8244;50.044;9.006;2023-11-21T08:27:27;9.70;99.90
16273;DHT22;8244;50.044;9.006;2023-11-21T08:32:29;9.80;99.90
16273;DHT22;8244;50.044;9.006;2023-11-21T08:37:32;9.90;99.90
16273;DHT22;8244;50.044;9.006;2023-11-21T08:42:38;10.00;99.90
16273;DHT22;8244;50.044;9.006;2023-11-21T08:47:40;10.00;99.90
16273;DHT22;8244;50.044;9.006;2023-11-21T08:52:45;10.10;99.90
16273;DHT22;8244;50.044;9.006;2023-11-21T08:57:48;10.20;99.90
16273;DHT22;8244;50.044;9.006;2023-11-21T09:02:50;10.20;99.90
16273;DHT22;8244;50.044;9.006;2023-11-21T09:07:52;10.20;99.90
16273;DHT22;8244;50.044;9.006;2023-11-21T09:12:55;10.30;99.90
16273;DHT22;8244;50.044;9.006;2023-11-21T09:17:57;10.40;99.90
16273;DHT22;8244;50.044;9.006;2023-11-21T09:22:59;10.40;99.90
16273;DHT22;8244;50.044;9.006;2023-11-21T09:28:02;10.40;99.90
16273;DHT22;8244;50.044;9.006;2023-11-21T09:33:05;10.40;99.90
16273;DHT22;8244;50.044;9.006;2023-11-21T09:38:09;10.40;99.90
16273;DHT22;8244;50.044;9.006;2023-11-21T09:43:16;10.40;99.90
16273;DHT22;8244;50.044;9.006;2023-11-21T09:48:18;10.40;99.90
16273;DHT22;8244;50.044;9.006;2023-11-21T09:53:22;10.50;99.90
16273;DHT22;8244;50.044;9.006;2023-11-21T09:58:27;10.60;99.90
16273;DHT22;8244;50.044;9.006;2023-11-21T10:03:28;10.70;99.90
16273;DHT22;8244;50.044;9.006;2023-11-21T10:08:32;10.90;99.90
16273;DHT22;8244;50.044;9.006;2023-11-21T10:13:35;11.00;99.90
16273;DHT22;8244;50.044;9.006;2023-11-21T10:18:38;11.20;99.90
16273;DHT22;8244;50.044;9.006;2023-11-21T10:23:41;11.30;99.90
16273;DHT22;8244;50.044;9.006;2023-11-21T10:28:56;11.30;99.90
16273;DHT22;8244;50.044;9.006;2023-11-21T10:34:12;11.20;99.90
16273;DHT22;8244;50.044;9.006;2023-11-21T10:39:16;11.20;99.90
16273;DHT22;8244;50.044;9.006;2023-11-21T10:44:20;11.30;99.90
16273;DHT22;8244;50.044;9.006;2023-11-21T10:49:25;11.30;99.90
16273;DHT22;8244;50.044;9.006;2023-11-21T10:54:27;11.40;99.90
16273;DHT22;8244;50.044;9.006;2023-11-21T10:59:30;11.60;99.90
16273;DHT22;8244;50.044;9.006;2023-11-21T11:04:34;11.70;99.90
16273;DHT22;8244;50.044;9.006;2023-11-21T11:09:38;12.00;99.90
16273;DHT22;8244;50.044;9.006;2023-11-21T11:14:42;12.20;99.90
16273;DHT22;8244;50.044;9.006;2023-11-21T11:19:45;12.40;99.90
16273;DHT22;8244;50.044;9.006;2023-11-21T11:24:59;12.60;99.90
16273;DHT22;8244;50.044;9.006;2023-11-21T11:30:16;13.00;99.90
16273;DHT22;8244;50.044;9.006;2023-11-21T11:35:26;13.40;99.90
16273;DHT22;8244;50.044;9.006;2023-11-21T11:40:41;13.60;99.90
16273;DHT22;8244;50.044;9.006;2023-11-21T11:45:47;13.80;99.90
16273;DHT22;8244;50.044;9.006;2023-11-21T11:51:01;13.90;99.90
16273;DHT22;8244;50.044;9.006;2023-11-21T11:56:23;14.00;99.90
16273;DHT22;8244;50.044;9.006;2023-11-21T12:01:27;14.00;99.90
16273;DHT22;8244;50.044;9.006;2023-11-21T12:06:33;14.20;99.90
16273;DHT22;8244;50.044;9.006;2023-11-21T12:11:36;14.10;99.90
16273;DHT22;8244;50.044;9.006;2023-11-21T12:16:40;14.00;99.90
16273;DHT22;8244;50.044;9.006;2023-11-21T12:21:43;14.00;99.90
16273;DHT22;8244;50.044;9.006;2023-11-21T12:26:45;13.90;99.90
16273;DHT22;8244;50.044;9.006;2023-11-21T12:31:50;14.00;99.90
16273;DHT22;8244;50.044;9.006;2023-11-21T12:36:51;14.00;99.90
16273;DHT22;8244;50.044;9.006;2023-11-21T12:41:55;13.90;99.90
16273;DHT22;8244;50.044;9.006;2023-11-21T12:46:59;13.80;99.90
16273;DHT22;8244;50.044;9.006;2023-11-21T12:52:01;13.70;99.90
16273;DHT22;8244;50.044;9.006;2023-11-21T12:57:04;13.50;99.90
16273;DHT22;8244;50.044;9.006;2023-11-21T13:02:12;13.40;99.90
16273;DHT22;8244;50.044;9.006;2023-11-21T13:07:14;13.30;99.90
16273;DHT22;8244;50.044;9.006;2023-11-21T13:12:20;13.30;99.90
16273;DHT22;8244;50.044;9.006;2023-11-21T13:17:26;13.20;99.90
16273;DHT22;8244;50.044;9.006;2023-11-21T13:22:28;13.10;99.90
16273;DHT22;8244;50.044;9.006;2023-11-21T13:27:30;13.10;99.90
16273;DHT22;8244;50.044;9.006;2023-11-21T13:32:34;13.00;99.90
16273;DHT22;8244;50.044;9.006;2023-11-21T13:37:35;12.80;99.90
16273;DHT22;8244;50.044;9.006;2023-11-21T13:42:37;12.80;99.90
16273;DHT22;8244;50.044;9.006;2023-11-21T13:47:40;12.70;99.90
16273;DHT22;8244;50.044;9.006;2023-11-21T13:52:42;12.60;99.90
16273;DHT22;8244;50.044;9.006;2023-11-21T13:57:43;12.40;99.90
16273;DHT22;8244;50.044;9.006;2023-11-21T14:02:51;12.30;99.90
16273;DHT22;8244;50.044;9.006;2023-11-21T14:07:53;12.20;99.90
16273;DHT22;8244;50.044;9.006;2023-11-21T14:12:57;12.00;99.90
16273;DHT22;8244;50.044;9.006;2023-11-21T14:18:00;11.90;99.90
16273;DHT22;8244;50.044;9.006;2023-11-21T14:23:07;11.80;99.90
16273;DHT22;8244;50.044;9.006;2023-11-21T14:28:08;11.70;99.90
16273;DHT22;8244;50.044;9.006;2023-11-21T14:33:13;11.70;99.90
16273;DHT22;8244;50.044;9.006;2023-11-21T14:38:16;11.50;99.90
16273;DHT22;8244;50.044;9.006;2023-11-21T14:43:18;11.50;99.90
16273;DHT22;8244;50.044;9.006;2023-11-21T14:48:22;11.40;99.90
16273;DHT22;8244;50.044;9.006;2023-11-21T14:53:39;11.40;99.90
16273;DHT22;8244;50.044;9.006;2023-11-21T14:58:55;11.20;99.90
16273;DHT22;8244;50.044;9.006;2023-11-21T15:03:58;11.10;99.90
16273;DHT22;8244;50.044;9.006;2023-11-21T15:09:00;11.00;99.90
16273;DHT22;8244;50.044;9.006;2023-11-21T15:14:20;10.90;99.90
16273;DHT22;8244;50.044;9.006;2023-11-21T15:19:27;10.90;99.90
16273;DHT22;8244;50.044;9.006;2023-11-21T15:24:29;10.70;99.90
16273;DHT22;8244;50.044;9.006;2023-11-21T15:29:30;10.70;99.90
16273;DHT22;8244;50.044;9.006;2023-11-21T15:34:34;10.60;99.90
16273;DHT22;8244;50.044;9.006;2023-11-21T15:39:36;10.50;99.90
16273;DHT22;8244;50.044;9.006;2023-11-21T15:44:37;10.50;99.90
16273;DHT22;8244;50.044;9.006;2023-11-21T15:49:41;10.50;99.90
16273;DHT22;8244;50.044;9.006;2023-11-21T15:54:43;10.40;99.90
16273;DHT22;8244;50.044;9.006;2023-11-21T15:59:46;10.40;99.90
16273;DHT22;8244;50.044;9.006;2023-11-21T16:04:49;10.30;99.90
16273;DHT22;8244;50.044;9.006;2023-11-21T16:09:51;10.20;99.90
16273;DHT22;8244;50.044;9.006;2023-11-21T16:14:52;10.10;99.90
16273;DHT22;8244;50.044;9.006;2023-11-21T16:19:55;10.10;99.90
16273;DHT22;8244;50.044;9.006;2023-11-21T16:24:57;10.00;99.90
16273;DHT22;8244;50.044;9.006;2023-11-21T16:30:00;10.00;99.90
16273;DHT22;8244;50.044;9.006;2023-11-21T16:35:06;10.00;99.90
16273;DHT22;8244;50.044;9.006;2023-11-21T16:40:09;10.00;99.90
16273;DHT22;8244;50.044;9.006;2023-11-21T16:45:11;9.90;99.90
16273;DHT22;8244;50.044;9.006;2023-11-21T16:50:14;9.90;99.90
16273;DHT22;8244;50.044;9.006;2023-11-21T16:55:16;9.90;99.90
16273;DHT22;8244;50.044;9.006;2023-11-21T17:00:18;9.90;99.90
16273;DHT22;8244;50.044;9.006;2023-11-21T17:05:24;9.80;99.90
16273;DHT22;8244;50.044;9.006;2023-11-21T17:10:26;9.80;99.90
16273;DHT22;8244;50.044;9.006;2023-11-21T17:15:27;9.80;99.90
16273;DHT22;8244;50.044;9.006;2023-11-21T17:20:30;9.80;99.90
16273;DHT22;8244;50.044;9.006;2023-11-21T17:25:32;9.80;99.90
16273;DHT22;8244;50.044;9.006;2023-11-21T17:30:33;9.70;99.90
16273;DHT22;8244;50.044;9.006;2023-11-21T17:35:38;9.70;99.90
16273;DHT22;8244;50.044;9.006;2023-11-21T17:40:40;9.70;99.90
16273;DHT22;8244;50.044;9.006;2023-11-21T17:45:42;9.60;99.90
16273;DHT22;8244;50.044;9.006;2023-11-21T17:50:45;9.60;99.90
16273;DHT22;8244;50.044;9.006;2023-11-21T17:55:48;9.50;99.90
16273;DHT22;8244;50.044;9.006;2023-11-21T18:00:50;9.50;99.90
16273;DHT22;8244;50.044;9.006;2023-11-21T18:05:54;9.50;99.90
16273;DHT22;8244;50.044;9.006;2023-11-21T18:10:56;9.50;99.90
16273;DHT22;8244;50.044;9.006;2023-11-21T18:15:59;9.50;99.90
16273;DHT22;8244;50.044;9.006;2023-11-21T18:21:02;9.50;99.90
16273;DHT22;8244;50.044;9.006;2023-11-21T18:26:04;9.50;99.90
16273;DHT22;8244;50.044;9.006;2023-11-21T18:31:06;9.50;99.90
16273;DHT22;8244;50.044;9.006;2023-11-21T18:36:09;9.50;99.90
16273;DHT22;8244;50.044;9.006;2023-11-21T18:41:11;9.40;99.90
16273;DHT22;8244;50.044;9.006;2023-11-21T18:46:12;9.40;99.90
16273;DHT22;8244;50.044;9.006;2023-11-21T18:51:15;9.40;99.90
16273;DHT22;8244;50.044;9.006;2023-11-21T18:56:20;9.40;99.90
16273;DHT22;8244;50.044;9.006;2023-11-21T19:01:25;9.40;99.90
16273;DHT22;8244;50.044;9.006;2023-11-21T19:06:28;9.40;99.90
16273;DHT22;8244;50.044;9.006;2023-11-21T19:11:30;9.30;99.90
16273;DHT22;8244;50.044;9.006;2023-11-21T19:16:32;9.20;99.90
16273;DHT22;8244;50.044;9.006;2023-11-21T19:21:35;9.20;99.90
16273;DHT22;8244;50.044;9.006;2023-11-21T19:26:37;9.10;99.90
16273;DHT22;8244;50.044;9.006;2023-11-21T19:31:38;9.00;99.90
16273;DHT22;8244;50.044;9.006;2023-11-21T19:36:41;8.90;99.90
16273;DHT22;8244;50.044;9.006;2023-11-21T19:41:43;8.80;99.90
16273;DHT22;8244;50.044;9.006;2023-11-21T19:46:45;8.80;99.90
16273;DHT22;8244;50.044;9.006;2023-11-21T19:51:48;8.80;99.90
16273;DHT22;8244;50.044;9.006;2023-11-21T21:52:36;7.00;99.90
16273;DHT22;8244;50.044;9.006;2023-11-21T21:57:38;7.00;99.90
16273;DHT22;8244;50.044;9.006;2023-11-21T22:02:40;6.90;99.90
16273;DHT22;8244;50.044;9.006;2023-11-21T22:07:43;6.90;99.90
16273;DHT22;8244;50.044;9.006;2023-11-21T22:12:45;6.80;99.90
16273;DHT22;8244;50.044;9.006;2023-11-21T22:17:47;6.80;99.90
16273;DHT22;8244;50.044;9.006;2023-11-21T22:22:52;6.70;99.90
16273;DHT22;8244;50.044;9.006;2023-11-21T22:27:53;6.70;99.90
16273;DHT22;8244;50.044;9.006;2023-11-21T22:32:55;6.70;99.90
16273;DHT22;8244;50.044;9.006;2023-11-21T22:38:00;6.70;99.90
16273;DHT22;8244;50.044;9.006;2023-11-21T22:43:01;6.60;99.90
16273;DHT22;8244;50.044;9.006;2023-11-21T22:48:03;6.50;99.90
16273;DHT22;8244;50.044;9.006;2023-11-21T22:53:06;6.50;99.90
16273;DHT22;8244;50.044;9.006;2023-11-21T22:58:08;6.50;99.90
16273;DHT22;8244;50.044;9.006;2023-11-21T23:03:10;6.40;99.90
16273;DHT22;8244;50.044;9.006;2023-11-21T23:08:13;6.30;99.90
16273;DHT22;8244;50.044;9.006;2023-11-21T23:13:14;6.20;99.90
16273;DHT22;8244;50.044;9.006;2023-11-21T23:18:19;6.20;99.90
16273;DHT22;8244;50.044;9.006;2023-11-21T23:23:28;6.10;99.90
16273;DHT22;8244;50.044;9.006;2023-11-21T23:28:30;5.90;99.90
16273;DHT22;8244;50.044;9.006;2023-11-21T23:33:32;5.80;99.90
16273;DHT22;8244;50.044;9.006;2023-11-21T23:38:34;5.70;99.90
16273;DHT22;8244;50.044;9.006;2023-11-21T23:43:36;5.50;99.90
16273;DHT22;8244;50.044;9.006;2023-11-21T23:48:39;5.40;99.90
16273;DHT22;8244;50.044;9.006;2023-11-21T23:53:42;5.20;99.90
16273;DHT22;8244;50.044;9.006;2023-11-21T23:58:44;5.10;99.90
